Terminal Aerodrome Forecast
Issued by NWS Bismarck, ND

Home | Current Version | Previous Version | Graphics & Text | Print | Product List | Glossary On
Versions: 1 2 3 4 5 6 7 8 9 10 11 12 13 14 15 16 17 18 19 20 21
000
FTUS43 KBIS 060544
TAFISN
TAF
KISN 060544Z 0606/0706 36005KT 6SM FU SCT050 BKN150
      TEMPO 0606/0610 4SM FU SCT040 BKN150
     FM061000 33005KT 4SM FU BKN035 BKN100
      TEMPO 0610/0613 2SM FU
     FM061600 35008KT 5SM FU SCT040 BKN120
     FM062100 36010KT 6SM FU SKC
     FM070300 VRB03KT 4SM FU SKC=

USA.gov is the U.S. government's official web portal to all federal, state and local government web resources and services.